Time;durP1;ratioP1;P1;durP2;ratioP2;P2;SDS_P1;SDS_P2;PMS_P1;PMS_P2;Temp;Humidity;BMP_temperature;BMP_pressure;BME280_temperature;BME280_humidity;BME280_pressure;Samples;Min_cycle;Max_cycle;Signal;HPM_P1;HPM_P2
2022/03/11 00:00:44;;;;;;;14.40;9.70;;;6.80;1.00;7.50;67914.00;;;;4990021;28;20809;-75
2022/03/11 00:03:15;;;;;;;12.53;10.20;;;6.80;1.00;217.30;159786.00;;;;5001660;28;20454;-76
2022/03/11 00:05:44;;;;;;;17.30;10.43;;;6.80;1.00;7.30;101092.00;;;;4987411;28;20531;-75
2022/03/11 00:08:13;;;;;;;18.10;10.67;;;6.70;1.00;7.30;101090.00;;;;5005366;28;20458;-74
2022/03/11 00:10:42;;;;;;;13.10;10.33;;;6.70;1.00;7.30;101081.00;;;;4993786;28;20459;-75
2022/03/11 00:13:10;;;;;;;12.50;10.10;;;6.60;1.00;7.10;101079.00;;;;4991151;28;21121;-73
2022/03/11 00:15:39;;;;;;;14.60;10.30;;;6.60;1.00;7.20;101058.00;;;;5005669;28;20473;-75
2022/03/11 00:18:07;;;;;;;15.73;10.40;;;6.50;1.00;7.10;101092.00;;;;4998937;28;20827;-76
2022/03/11 00:20:37;;;;;;;17.43;12.30;;;6.40;1.00;6.90;101082.00;;;;4979477;28;20477;-74
2022/03/11 00:23:05;;;;;;;16.00;12.17;;;6.40;1.00;6.90;101066.00;;;;4989798;28;20887;-76
2022/03/11 00:25:34;;;;;;;18.40;10.97;;;6.40;1.00;6.90;101079.00;;;;5007204;28;20484;-76
2022/03/11 00:28:04;;;;;;;14.20;9.87;;;6.20;1.00;6.80;101076.00;;;;5013144;28;20462;-75
2022/03/11 00:30:32;;;;;;;16.43;12.17;;;6.20;1.00;6.80;101084.00;;;;5011568;28;20458;-76
2022/03/11 00:33:01;;;;;;;18.77;13.57;;;6.10;1.00;6.70;101068.00;;;;5014667;28;20538;-76
2022/03/11 00:35:32;;;;;;;19.53;15.47;;;6.10;1.00;6.70;101074.00;;;;4996897;28;20540;-76
2022/03/11 00:38:01;;;;;;;16.03;12.53;;;6.00;1.00;6.70;101070.00;;;;4999546;28;20546;-76
2022/03/11 00:40:30;;;;;;;17.30;13.20;;;6.00;1.00;6.30;101071.00;;;;4998282;28;20466;-75
2022/03/11 00:42:58;;;;;;;18.77;13.80;;;6.10;1.00;6.40;101070.00;;;;5004952;28;20461;-76
2022/03/11 00:45:27;;;;;;;17.30;12.93;;;5.80;1.00;6.30;101069.00;;;;5003697;28;20474;-77
2022/03/11 00:47:55;;;;;;;19.60;14.60;;;5.70;1.00;6.30;101073.00;;;;5002194;28;20442;-78
2022/03/11 00:50:24;;;;;;;17.80;13.77;;;5.70;1.00;6.30;101075.00;;;;4998158;28;21018;-76
2022/03/11 00:52:53;;;;;;;19.73;14.33;;;5.70;1.00;6.30;101060.00;;;;5000184;28;20459;-75
2022/03/11 00:55:23;;;;;;;23.13;15.90;;;5.70;1.00;6.40;101056.00;;;;5002176;28;20464;-74
2022/03/11 00:57:52;;;;;;;22.70;16.10;;;5.70;1.00;6.40;101061.00;;;;5027140;28;20450;-76
2022/03/11 01:00:21;;;;;;;21.20;15.50;;;5.70;1.00;6.30;101034.00;;;;5019307;28;20519;-75
2022/03/11 01:02:49;;;;;;;19.30;13.77;;;5.70;1.00;6.20;101057.00;;;;5009510;28;20454;-77
2022/03/11 01:05:17;;;;;;;23.83;16.80;;;5.70;1.00;6.20;101054.00;;;;5033511;28;20468;-77
2022/03/11 01:07:46;;;;;;;18.37;12.13;;;5.70;1.00;6.20;101057.00;;;;5014505;28;20446;-75
2022/03/11 01:10:15;;;;;;;19.00;13.63;;;5.70;1.00;6.30;101048.00;;;;5005574;28;20474;-75
2022/03/11 01:12:44;;;;;;;17.73;12.67;;;5.70;1.00;6.30;101054.00;;;;5002625;28;20450;-75
2022/03/11 01:15:13;;;;;;;18.47;12.73;;;5.80;1.00;6.30;101053.00;;;;5000965;28;20935;-76
2022/03/11 01:17:42;;;;;;;18.27;12.17;;;5.70;1.00;6.30;101005.00;;;;5000855;28;20451;-75
2022/03/11 01:20:12;;;;;;;15.80;12.03;;;5.60;1.00;6.30;100664.00;;;;4998557;28;21348;-76
2022/03/11 01:22:41;;;;;;;14.90;11.43;;;5.80;1.00;6.30;101055.00;;;;5000624;28;20484;-75
2022/03/11 01:25:10;;;;;;;14.80;11.47;;;5.80;1.00;6.30;101038.00;;;;4997255;28;20466;-76
2022/03/11 01:27:38;;;;;;;16.87;12.47;;;5.80;1.00;6.40;101033.00;;;;4998095;28;20458;-74
2022/03/11 01:30:13;;;;;;;15.20;11.53;;;5.80;1.00;6.40;101051.00;;;;4999316;28;20489;-76
2022/03/11 01:32:42;;;;;;;18.70;13.27;;;5.90;1.00;6.40;101014.00;;;;5000749;28;21351;-75
2022/03/11 01:35:11;;;;;;;17.00;12.40;;;5.90;1.00;6.50;101037.00;;;;4999526;28;20458;-77
2022/03/11 01:37:41;;;;;;;19.47;12.90;;;6.00;1.00;6.50;101004.00;;;;4999439;28;20461;-77
2022/03/11 01:40:10;;;;;;;15.53;12.40;;;6.00;1.00;217.30;159488.00;;;;4995310;28;20472;-77
2022/03/11 01:42:39;;;;;;;18.00;13.00;;;6.10;1.00;6.50;101025.00;;;;4992946;28;20458;-77
2022/03/11 01:45:10;;;;;;;13.93;11.53;;;6.00;1.00;6.40;101014.00;;;;4996822;28;20512;-76
2022/03/11 01:47:39;;;;;;;16.90;12.93;;;6.00;1.00;6.50;101008.00;;;;4997935;28;20962;-78
2022/03/11 01:50:08;;;;;;;19.20;13.93;;;6.10;1.00;6.50;101020.00;;;;4997578;28;20478;-76
2022/03/11 01:52:38;;;;;;;18.60;13.57;;;6.00;1.00;6.50;101008.00;;;;4997362;28;20647;-77
2022/03/11 01:55:09;;;;;;;19.67;13.00;;;6.00;1.00;6.50;100992.00;;;;4998025;28;21205;-78
2022/03/11 01:57:39;;;;;;;17.83;13.30;;;6.10;1.00;6.50;101007.00;;;;4997772;28;20541;-77
2022/03/11 02:00:10;;;;;;;21.20;14.53;;;6.10;1.00;6.50;101004.00;;;;4996411;28;20449;-77
2022/03/11 02:02:41;;;;;;;18.70;14.53;;;6.10;1.00;6.60;101027.00;;;;4994882;28;21381;-77
2022/03/11 02:05:11;;;;;;;19.97;15.30;;;6.10;1.00;6.50;67696.00;;;;4994063;28;20473;-76
2022/03/11 02:07:40;;;;;;;18.70;15.27;;;6.00;1.00;6.50;101009.00;;;;4983685;28;20461;-77
2022/03/11 02:10:09;;;;;;;19.83;15.80;;;6.00;1.00;6.50;101002.00;;;;4991337;28;20474;-77
2022/03/11 02:12:38;;;;;;;21.47;15.53;;;6.00;1.00;6.40;101005.00;;;;5001076;28;20470;-77
2022/03/11 02:15:11;;;;;;;20.33;16.07;;;6.30;1.00;6.40;67687.00;;;;4983619;28;20459;-77
2022/03/11 02:17:39;;;;;;;19.10;14.53;;;6.00;1.00;6.40;101004.00;;;;5000855;28;20516;-77
2022/03/11 02:20:09;;;;;;;20.50;15.60;;;5.90;1.00;6.40;101003.00;;;;4989726;28;20474;-77
2022/03/11 02:22:41;;;;;;;20.30;16.00;;;5.90;1.00;6.30;101009.00;;;;5003132;28;20463;-76
2022/03/11 02:25:11;;;;;;;22.10;16.63;;;6.00;1.00;6.40;101005.00;;;;5005645;28;20462;-76
2022/03/11 02:27:42;;;;;;;21.70;16.50;;;6.00;1.00;6.40;101007.00;;;;4988643;28;20956;-76
2022/03/11 02:30:16;;;;;;;21.60;16.40;;;6.00;1.00;6.40;101008.00;;;;4984625;28;20557;-77
2022/03/11 02:32:45;;;;;;;20.00;15.67;;;6.00;1.00;6.40;100996.00;;;;4990710;28;21402;-77
2022/03/11 02:35:14;;;;;;;23.70;15.53;;;5.90;1.00;6.40;100996.00;;;;4984038;28;20465;-77
2022/03/11 02:37:43;;;;;;;21.07;17.03;;;5.90;1.00;6.40;101006.00;;;;4988027;28;20459;-77
2022/03/11 02:40:13;;;;;;;19.80;15.90;;;5.90;1.00;6.40;101009.00;;;;5001298;28;20462;-77
2022/03/11 02:42:42;;;;;;;24.57;16.80;;;5.90;1.00;6.40;67668.00;;;;4984493;28;20462;-77
2022/03/11 02:45:11;;;;;;;21.63;17.30;;;6.00;1.00;6.20;100985.00;;;;5000049;28;20550;-77
2022/03/11 02:47:39;;;;;;;19.03;15.70;;;5.80;1.00;6.20;100996.00;;;;4988867;28;20866;-77
2022/03/11 02:50:08;;;;;;;19.30;15.87;;;5.70;1.00;6.10;100965.00;;;;4987814;28;20478;-78
2022/03/11 02:52:36;;;;;;;19.83;16.30;;;5.70;1.00;6.10;100974.00;;;;4986919;28;21019;-77
2022/03/11 02:55:06;;;;;;;22.13;17.67;;;5.60;1.00;5.90;100982.00;;;;4986813;28;20463;-78
2022/03/11 02:57:36;;;;;;;21.13;16.07;;;5.50;1.00;6.00;100966.00;;;;4984880;28;20968;-78
2022/03/11 03:00:06;;;;;;;21.83;16.77;;;5.60;1.00;6.00;100980.00;;;;4985697;28;20457;-77
2022/03/11 03:02:34;;;;;;;20.50;17.30;;;5.60;1.00;6.00;100966.00;;;;4998645;28;20451;-77
2022/03/11 03:05:04;;;;;;;20.80;17.83;;;5.50;1.00;5.90;100954.00;;;;4988128;28;20455;-77
2022/03/11 03:07:33;;;;;;;22.20;18.30;;;5.40;1.00;5.80;100968.00;;;;4987170;28;20458;-77
2022/03/11 03:10:01;;;;;;;23.77;19.00;;;5.40;1.00;5.90;100964.00;;;;4986618;28;20462;-76
2022/03/11 03:12:30;;;;;;;21.57;18.13;;;5.40;1.00;5.90;100958.00;;;;4984847;28;20473;-76
2022/03/11 03:14:59;;;;;;;21.57;18.33;;;5.40;1.00;5.90;100985.00;;;;4991774;28;20463;-76
2022/03/11 03:17:30;;;;;;;23.57;18.67;;;5.40;1.00;5.90;100975.00;;;;4986027;28;20478;-76
2022/03/11 03:20:00;;;;;;;23.40;18.43;;;5.40;1.00;5.90;100970.00;;;;4999136;28;20469;-76
2022/03/11 03:22:29;;;;;;;25.30;19.60;;;5.40;1.00;5.80;100972.00;;;;4983245;28;20493;-76
2022/03/11 03:24:57;;;;;;;23.87;18.70;;;5.40;1.00;5.80;100970.00;;;;4985361;28;20454;-76
2022/03/11 03:27:25;;;;;;;22.10;18.20;;;5.30;1.00;5.80;100965.00;;;;4984922;28;20478;-76
2022/03/11 03:29:54;;;;;;;25.20;18.73;;;5.30;1.00;5.80;100973.00;;;;4980087;28;20981;-75
2022/03/11 03:32:24;;;;;;;25.40;18.70;;;5.30;1.00;5.80;100967.00;;;;4999184;28;20453;-76
2022/03/11 03:34:54;;;;;;;22.93;18.00;;;5.40;1.00;5.80;100977.00;;;;5014103;28;20473;-76
2022/03/11 03:37:23;;;;;;;25.53;19.27;;;5.40;1.00;5.80;100949.00;;;;5011467;28;20502;-75
2022/03/11 03:39:51;;;;;;;23.13;18.47;;;5.30;1.00;5.90;100960.00;;;;5019572;28;20469;-76
2022/03/11 03:42:19;;;;;;;22.40;18.80;;;5.30;1.00;5.70;100963.00;;;;5031278;28;20471;-75
2022/03/11 03:44:48;;;;;;;22.20;18.40;;;5.30;1.00;5.60;100973.00;;;;5021606;28;20488;-74
2022/03/11 03:47:16;;;;;;;23.30;19.27;;;5.20;1.00;5.70;100969.00;;;;5021494;28;20469;-75
2022/03/11 03:49:46;;;;;;;28.90;21.27;;;5.10;1.00;5.50;100966.00;;;;5018933;28;20460;-77
2022/03/11 03:52:14;;;;;;;23.30;19.90;;;5.10;1.00;5.50;100956.00;;;;5012155;28;20552;-77
2022/03/11 03:54:44;;;;;;;22.63;19.03;;;5.00;1.00;5.50;100970.00;;;;5001364;28;20455;-77
2022/03/11 03:57:12;;;;;;;22.10;18.30;;;5.00;1.00;5.50;100982.00;;;;5007696;28;20470;-77
2022/03/11 03:59:41;;;;;;;23.70;19.07;;;5.00;1.00;5.50;100977.00;;;;5002714;28;20489;-77
2022/03/11 04:02:10;;;;;;;21.97;18.13;;;5.00;1.00;5.50;100963.00;;;;5004395;28;20542;-77
2022/03/11 04:04:38;;;;;;;23.80;19.97;;;5.00;1.00;5.50;100963.00;;;;5003212;28;20458;-77
2022/03/11 04:07:08;;;;;;;23.60;18.77;;;5.00;1.00;5.40;100953.00;;;;5000537;28;20477;-77
2022/03/11 04:09:36;;;;;;;22.70;18.13;;;4.90;1.00;5.40;100966.00;;;;4996481;28;20810;-78
2022/03/11 04:12:05;;;;;;;28.53;19.40;;;4.90;1.00;5.40;100961.00;;;;5001962;28;20485;-78
2022/03/11 04:14:34;;;;;;;22.20;18.93;;;4.90;1.00;5.40;100971.00;;;;4997651;28;20995;-77
2022/03/11 04:17:03;;;;;;;26.23;19.73;;;4.90;1.00;5.40;100964.00;;;;5001371;28;20474;-78
2022/03/11 04:19:31;;;;;;;25.20;19.40;;;4.90;1.00;5.30;100959.00;;;;5001967;28;20453;-77
2022/03/11 04:22:00;;;;;;;24.40;20.00;;;4.90;1.00;5.30;100913.00;;;;4999229;28;20457;-77
2022/03/11 04:24:29;;;;;;;22.73;18.07;;;5.10;1.00;5.20;100955.00;;;;4998486;28;20825;-75
2022/03/11 04:26:57;;;;;;;23.37;18.70;;;5.10;1.00;5.20;100952.00;;;;4997691;28;20477;-77
2022/03/11 04:29:26;;;;;;;21.60;18.37;;;5.10;1.00;5.20;100967.00;;;;4992077;28;20834;-75
2022/03/11 04:31:55;;;;;;;23.50;19.17;;;4.90;1.00;5.30;100943.00;;;;5003313;28;20544;-76
2022/03/11 04:34:25;;;;;;;23.63;18.83;;;4.70;1.00;5.40;100945.00;;;;4988209;28;20454;-76
2022/03/11 04:36:55;;;;;;;22.60;17.83;;;4.80;1.00;5.40;100952.00;;;;4989931;28;20501;-75
2022/03/11 04:39:26;;;;;;;22.00;18.67;;;4.80;1.00;5.40;100929.00;;;;4990745;28;20994;-74
2022/03/11 04:41:59;;;;;;;24.23;18.77;;;4.80;1.00;5.20;100957.00;;;;4987577;28;20482;-76
2022/03/11 04:44:32;;;;;;;22.23;18.20;;;4.70;1.00;5.20;100940.00;;;;4994238;28;20461;-79
2022/03/11 04:47:00;;;;;;;26.00;19.77;;;4.70;1.00;5.20;100957.00;;;;4989118;28;20482;-76
2022/03/11 04:49:28;;;;;;;23.43;18.77;;;5.00;1.00;5.20;100962.00;;;;4987930;28;21248;-76
2022/03/11 04:51:57;;;;;;;21.97;18.00;;;4.70;1.00;5.10;100966.00;;;;4987256;28;20492;-77
2022/03/11 04:54:25;;;;;;;24.37;18.60;;;4.60;1.00;5.00;100964.00;;;;4988078;28;20455;-76
2022/03/11 04:56:53;;;;;;;22.90;19.00;;;4.60;1.00;5.00;100963.00;;;;4984621;28;20502;-75
2022/03/11 04:59:23;;;;;;;22.23;16.93;;;4.80;1.00;4.90;100965.00;;;;5003588;28;21200;-77
2022/03/11 05:01:51;;;;;;;26.30;18.77;;;4.50;1.00;4.90;100957.00;;;;4994163;28;20844;-76
2022/03/11 05:04:19;;;;;;;22.23;18.07;;;4.50;1.00;4.90;100959.00;;;;4994621;28;20532;-78
2022/03/11 05:06:48;;;;;;;23.93;18.40;;;4.50;1.00;5.00;100969.00;;;;4996962;28;20485;-77
2022/03/11 05:09:16;;;;;;;24.10;18.60;;;4.50;1.00;5.00;100964.00;;;;4993755;28;21487;-77
2022/03/11 05:11:45;;;;;;;23.87;19.20;;;4.50;1.00;5.10;100970.00;;;;4994516;28;21058;-76
2022/03/11 05:14:13;;;;;;;29.93;19.07;;;4.50;1.00;5.00;100964.00;;;;4996181;28;20450;-76
2022/03/11 05:16:43;;;;;;;21.13;17.70;;;4.50;1.00;4.90;100905.00;;;;4987570;28;20484;-77
2022/03/11 05:19:11;;;;;;;23.53;18.23;;;4.40;1.00;4.90;100964.00;;;;4995287;28;20458;-77
2022/03/11 05:21:39;;;;;;;25.27;17.00;;;4.40;1.00;4.90;100972.00;;;;4996236;28;20461;-76
2022/03/11 05:24:08;;;;;;;22.40;18.07;;;4.40;1.00;4.80;100967.00;;;;4997350;28;20457;-77
2022/03/11 05:26:36;;;;;;;24.23;18.40;;;4.40;1.00;4.90;100959.00;;;;5012577;28;20478;-76
2022/03/11 05:29:04;;;;;;;20.50;18.00;;;4.40;1.00;4.90;100965.00;;;;4995287;28;20467;-79
2022/03/11 05:31:33;;;;;;;21.50;15.87;;;4.50;1.00;4.70;100963.00;;;;4994997;28;20520;-79
2022/03/11 05:34:02;;;;;;;22.90;17.30;;;4.20;1.00;4.60;100976.00;;;;4997681;28;20468;-76
2022/03/11 05:36:32;;;;;;;22.90;17.03;;;4.20;1.00;4.60;100956.00;;;;4995911;28;20558;-77
2022/03/11 05:39:00;;;;;;;19.90;16.57;;;4.10;1.00;4.70;100971.00;;;;5010253;28;20466;-77
2022/03/11 05:41:28;;;;;;;20.23;16.20;;;4.10;1.00;4.70;100973.00;;;;4996713;28;20454;-77
2022/03/11 05:43:57;;;;;;;22.47;16.47;;;4.20;1.00;4.80;100982.00;;;;5010693;28;20457;-76
2022/03/11 05:46:25;;;;;;;23.10;17.00;;;4.20;1.00;4.70;100982.00;;;;4996246;28;20482;-76
2022/03/11 05:48:53;;;;;;;25.23;17.73;;;4.20;1.00;4.70;100981.00;;;;5004669;28;20454;-77
2022/03/11 05:51:23;;;;;;;20.13;16.57;;;4.20;1.00;4.60;100970.00;;;;4994221;28;20461;-76
2022/03/11 05:53:51;;;;;;;19.10;14.80;;;4.20;1.00;4.70;100948.00;;;;4994731;28;20982;-81
2022/03/11 05:56:20;;;;;;;22.30;17.60;;;4.20;1.00;4.60;100970.00;;;;4994050;28;20482;-79
2022/03/11 05:58:50;;;;;;;21.90;17.80;;;4.10;1.00;4.70;100968.00;;;;5003847;28;20496;-76
2022/03/11 06:01:18;;;;;;;22.43;16.17;;;4.10;1.00;4.80;100974.00;;;;4995646;28;20462;-76
2022/03/11 06:03:47;;;;;;;19.57;14.60;;;4.20;1.00;4.80;100971.00;;;;4994760;28;20979;-77
2022/03/11 06:06:16;;;;;;;19.60;15.43;;;4.30;1.00;4.90;100965.00;;;;4996783;28;20497;-80
2022/03/11 06:08:45;;;;;;;21.83;16.03;;;4.30;1.00;4.90;100974.00;;;;4997379;28;20480;-76
2022/03/11 06:11:17;;;;;;;18.63;14.40;;;4.30;1.00;5.00;100966.00;;;;4997255;28;20454;-76
2022/03/11 06:13:46;;;;;;;23.43;16.30;;;4.50;1.00;5.00;100955.00;;;;4997754;28;20589;-80
2022/03/11 06:16:14;;;;;;;20.30;15.13;;;4.50;1.00;5.00;100963.00;;;;5013905;28;20541;-81
2022/03/11 06:18:43;;;;;;;20.33;16.67;;;4.50;1.00;5.00;100953.00;;;;5012396;28;20920;-76
2022/03/11 06:21:11;;;;;;;21.23;15.97;;;4.50;1.00;5.10;100958.00;;;;5031139;28;20495;-81
2022/03/11 06:23:40;;;;;;;20.97;15.50;;;4.50;1.00;5.20;100968.00;;;;5022623;28;20498;-77
2022/03/11 06:26:09;;;;;;;18.73;14.67;;;4.60;1.00;5.20;100917.00;;;;5011935;28;21023;-76
2022/03/11 06:28:38;;;;;;;18.23;15.50;;;4.70;1.00;5.40;100940.00;;;;5009075;28;20445;-78
2022/03/11 06:31:08;;;;;;;20.33;14.93;;;4.80;1.00;5.50;100957.00;;;;5006220;28;20496;-77
2022/03/11 06:33:37;;;;;;;23.87;15.33;;;4.90;1.00;5.60;100943.00;;;;5002456;28;20489;-77
2022/03/11 06:36:06;;;;;;;19.70;15.17;;;5.00;1.00;5.50;100952.00;;;;5000751;28;20478;-77
2022/03/11 06:38:34;;;;;;;20.10;14.73;;;5.00;1.00;5.60;100932.00;;;;5005483;28;20478;-78
2022/03/11 06:41:06;;;;;;;20.67;15.30;;;5.00;1.00;5.60;100956.00;;;;5022473;28;21840;-78
2022/03/11 06:43:45;;;;;;;22.27;15.70;;;5.10;1.00;5.60;100929.00;;;;5016625;28;20458;-81
2022/03/11 06:46:19;;;;;;;18.70;14.60;;;5.10;1.00;5.80;100966.00;;;;5016479;28;20497;-80
2022/03/11 06:48:47;;;;;;;18.93;15.87;;;5.20;1.00;5.80;100965.00;;;;5023073;28;20442;-79
2022/03/11 06:51:17;;;;;;;25.67;17.33;;;5.20;1.00;5.90;100967.00;;;;5004198;28;20447;-77
2022/03/11 06:53:46;;;;;;;17.30;14.90;;;5.30;1.00;5.90;100956.00;;;;5000830;28;20489;-76
2022/03/11 06:56:14;;;;;;;21.40;14.73;;;5.30;1.00;5.90;100949.00;;;;5002056;28;20485;-79
2022/03/11 06:58:42;;;;;;;19.07;15.57;;;5.30;1.00;5.80;100958.00;;;;5001092;28;20469;-79
2022/03/11 07:01:14;;;;;;;22.00;15.03;;;5.30;1.00;6.00;100965.00;;;;5005034;28;20473;-77
2022/03/11 07:03:42;;;;;;;22.30;16.20;;;5.40;1.00;6.10;100959.00;;;;5000775;28;20473;-77
2022/03/11 07:06:11;;;;;;;21.63;14.90;;;5.50;1.00;6.10;100959.00;;;;4997739;28;20991;-80
2022/03/11 07:08:39;;;;;;;22.23;15.30;;;5.50;1.00;6.20;100963.00;;;;4995731;28;20486;-77
2022/03/11 07:11:07;;;;;;;19.87;14.70;;;5.60;1.00;6.20;100965.00;;;;5000255;28;20462;-81
2022/03/11 07:13:36;;;;;;;18.60;13.60;;;5.70;1.00;6.30;100964.00;;;;4998447;28;20846;-78
2022/03/11 07:16:05;;;;;;;18.73;14.27;;;5.80;1.00;6.40;100964.00;;;;4998084;28;20473;-77
2022/03/11 07:18:35;;;;;;;17.00;14.40;;;5.80;1.00;6.40;100962.00;;;;4999914;28;20455;-78
2022/03/11 07:21:03;;;;;;;20.57;14.30;;;5.80;1.00;6.40;100970.00;;;;5001943;28;20469;-79
2022/03/11 07:23:32;;;;;;;18.73;13.33;;;5.80;1.00;6.60;100978.00;;;;5005672;28;20460;-78
2022/03/11 07:26:00;;;;;;;17.07;14.20;;;6.00;1.00;6.70;100970.00;;;;5009653;28;20481;-77
2022/03/11 07:28:29;;;;;;;20.07;14.33;;;6.10;1.00;6.90;100902.00;;;;5001658;28;20533;-78
2022/03/11 07:30:59;;;;;;;18.83;13.90;;;6.30;1.00;7.00;100962.00;;;;5001843;28;20537;-77
2022/03/11 07:33:28;;;;;;;16.90;13.80;;;6.40;1.00;6.80;100962.00;;;;4994446;28;20605;-77
2022/03/11 07:35:57;;;;;;;15.47;13.17;;;6.30;1.00;6.80;100975.00;;;;4987871;28;20482;-78
2022/03/11 07:38:30;;;;;;;16.60;12.93;;;6.30;1.00;6.70;100963.00;;;;4993902;28;20978;-79
2022/03/11 07:41:00;;;;;;;17.90;13.47;;;6.20;1.00;6.70;100966.00;;;;4991038;28;20457;-76
2022/03/11 07:43:28;;;;;;;17.57;13.87;;;6.20;1.00;6.80;100936.00;;;;5000660;28;20474;-76
2022/03/11 07:45:56;;;;;;;19.80;12.83;;;6.20;1.00;6.80;100961.00;;;;4980614;28;20514;-76
2022/03/11 07:48:25;;;;;;;18.87;14.10;;;6.70;1.00;6.90;100958.00;;;;5005229;28;20487;-77
2022/03/11 07:50:53;;;;;;;16.50;12.90;;;6.30;1.00;6.90;100937.00;;;;4991448;28;20475;-78
2022/03/11 07:53:23;;;;;;;17.13;12.57;;;6.30;1.00;7.10;100969.00;;;;5000479;28;20542;-77
2022/03/11 07:55:51;;;;;;;18.03;13.13;;;6.80;1.00;7.20;100969.00;;;;4986924;28;20473;-76
2022/03/11 07:58:21;;;;;;;15.00;12.50;;;6.70;1.00;7.40;100968.00;;;;4986923;28;20447;-76
2022/03/11 08:00:50;;;;;;;17.33;12.83;;;6.80;1.00;7.40;100949.00;;;;4986116;28;20529;-77
2022/03/11 08:03:22;;;;;;;18.77;14.97;;;6.90;1.00;7.40;100903.00;;;;4986992;28;20469;-78
2022/03/11 08:05:51;;;;;;;19.60;12.00;;;6.90;1.00;7.30;100973.00;;;;4991335;28;20492;-77
2022/03/11 08:08:21;;;;;;;13.87;11.63;;;6.80;1.00;7.40;100973.00;;;;5000186;28;20463;-77
2022/03/11 08:10:52;;;;;;;17.10;12.20;;;6.40;1.00;7.40;100967.00;;;;4985345;28;20478;-76
2022/03/11 08:13:34;;;;;;;14.07;11.00;;;6.90;1.00;7.70;100981.00;;;;5010403;28;20472;-77
2022/03/11 08:16:04;;;;;;;14.40;12.50;;;7.10;1.00;7.80;100976.00;;;;5010300;28;20506;-78
2022/03/11 08:18:33;;;;;;;13.37;11.83;;;7.10;1.00;7.80;100964.00;;;;4991304;28;20871;-75
2022/03/11 08:21:01;;;;;;;15.50;13.20;;;7.20;1.00;7.90;100953.00;;;;4987926;28;21130;-74
2022/03/11 08:23:31;;;;;;;18.50;11.60;;;7.30;1.00;8.00;100949.00;;;;4991057;28;20461;-74
2022/03/11 08:26:00;;;;;;;16.70;11.40;;;7.40;1.00;8.10;100962.00;;;;5008405;28;20483;-75
2022/03/11 08:28:29;;;;;;;13.83;10.97;;;7.80;1.00;8.10;100956.00;;;;4989350;28;20458;-75
2022/03/11 08:30:57;;;;;;;14.33;11.07;;;7.50;1.00;8.10;100938.00;;;;4987310;28;20979;-75
2022/03/11 08:33:30;;;;;;;12.57;10.50;;;7.50;1.00;8.10;100947.00;;;;4990655;28;20474;-75
2022/03/11 08:36:18;;;;;;;15.03;11.23;;;7.70;1.00;8.10;100949.00;;;;4984528;28;20470;-75
2022/03/11 08:38:48;;;;;;;16.73;11.57;;;7.60;1.00;8.10;100932.00;;;;4987087;28;20451;-76
2022/03/11 08:41:17;;;;;;;12.50;10.00;;;7.60;1.00;8.20;100898.00;;;;4994649;28;20457;-75
2022/03/11 08:43:49;;;;;;;13.53;10.50;;;7.70;1.00;8.30;100930.00;;;;4993410;28;20512;-76
2022/03/11 08:46:18;;;;;;;12.73;10.10;;;7.80;1.00;8.40;100962.00;;;;4991864;28;20490;-76
2022/03/11 08:48:46;;;;;;;15.03;11.37;;;7.80;1.00;8.30;100948.00;;;;4991249;28;20574;-76
2022/03/11 08:51:15;;;;;;;12.73;10.90;;;7.80;1.00;8.50;100941.00;;;;4991415;28;20544;-76
2022/03/11 08:53:43;;;;;;;14.53;10.90;;;7.80;1.00;8.50;100960.00;;;;5004138;28;20529;-78
2022/03/11 08:56:15;;;;;;;13.93;11.40;;;7.90;1.00;8.60;100948.00;;;;5015417;28;20470;-75
2022/03/11 08:58:46;;;;;;;13.83;10.70;;;7.90;1.00;8.60;100949.00;;;;5021812;28;20438;-74
2022/03/11 09:01:17;;;;;;;13.63;10.90;;;8.00;1.00;8.70;100950.00;;;;5019457;28;20482;-73
2022/03/11 09:03:46;;;;;;;14.80;11.73;;;8.10;1.00;8.70;100949.00;;;;5005959;28;20484;-76
2022/03/11 09:06:15;;;;;;;14.23;10.40;;;8.20;1.00;8.80;100910.00;;;;4997284;28;20470;-76
2022/03/11 09:08:44;;;;;;;14.07;10.17;;;8.20;1.00;8.80;100947.00;;;;4991131;28;20564;-75
2022/03/11 09:11:15;;;;;;;14.57;10.50;;;8.20;1.00;8.70;100950.00;;;;4986041;28;20455;-75
2022/03/11 09:13:49;;;;;;;14.57;10.77;;;8.20;1.00;8.50;100930.00;;;;4991338;28;20474;-75
2022/03/11 09:16:18;;;;;;;13.57;10.90;;;8.00;1.00;8.70;100941.00;;;;4997150;28;20489;-76
2022/03/11 09:18:47;;;;;;;14.83;10.33;;;8.20;1.00;8.70;100925.00;;;;4993692;28;20458;-76
2022/03/11 09:21:15;;;;;;;11.73;9.80;;;8.20;1.00;8.80;100934.00;;;;4996745;28;20556;-75
2022/03/11 09:23:44;;;;;;;17.60;12.50;;;8.30;1.00;9.00;100923.00;;;;5002250;28;20463;-76
2022/03/11 09:26:14;;;;;;;13.10;10.27;;;8.40;1.00;9.00;100928.00;;;;5010356;28;20470;-75
2022/03/11 09:28:42;;;;;;;15.93;11.20;;;8.50;1.00;9.10;100929.00;;;;5006878;28;20795;-76
2022/03/11 09:31:11;;;;;;;13.53;10.37;;;8.60;1.00;9.10;100919.00;;;;5001344;28;20461;-75
2022/03/11 09:33:40;;;;;;;14.73;10.50;;;8.90;1.00;9.00;100906.00;;;;4999244;28;20493;-74
2022/03/11 09:36:09;;;;;;;14.57;11.07;;;8.90;1.00;9.20;100904.00;;;;4994835;28;20637;-74
2022/03/11 09:38:37;;;;;;;14.67;11.60;;;8.70;1.00;9.30;100908.00;;;;5008047;28;20457;-75
2022/03/11 09:41:10;;;;;;;14.40;11.47;;;8.90;1.00;9.20;100912.00;;;;4995528;28;20462;-76
2022/03/11 09:43:40;;;;;;;16.00;11.33;;;9.00;1.00;9.50;100907.00;;;;4989767;28;20454;-75
2022/03/11 09:46:10;;;;;;;14.40;11.20;;;9.20;1.00;9.50;100901.00;;;;4988212;28;20490;-75
2022/03/11 09:48:39;;;;;;;14.43;11.63;;;9.10;1.00;9.50;100899.00;;;;4996417;28;20455;-75
2022/03/11 09:51:09;;;;;;;13.80;11.00;;;9.10;1.00;9.20;100896.00;;;;4995412;28;20782;-75
2022/03/11 09:53:43;;;;;;;12.57;9.57;;;8.90;1.00;9.20;100899.00;;;;4997336;28;20450;-74
2022/03/11 09:56:12;;;;;;;13.10;10.20;;;8.80;1.00;9.40;100884.00;;;;5009789;28;20497;-75
2022/03/11 09:58:41;;;;;;;13.93;10.30;;;9.00;1.00;9.40;100889.00;;;;5004706;28;21086;-76
2022/03/11 10:01:10;;;;;;;20.23;10.97;;;9.00;1.00;9.30;100878.00;;;;4997934;28;20457;-73
2022/03/11 10:03:38;;;;;;;12.20;10.20;;;9.00;1.00;9.60;100876.00;;;;5002702;28;20472;-73
2022/03/11 10:06:07;;;;;;;13.17;10.10;;;9.20;1.00;9.50;100896.00;;;;4999078;28;20606;-75
2022/03/11 10:08:37;;;;;;;13.07;10.60;;;9.20;1.00;9.50;100890.00;;;;5001937;28;20493;-74
2022/03/11 10:11:25;;;;;;;14.17;10.47;;;9.20;1.00;9.60;100862.00;;;;5001980;28;20538;-75
2022/03/11 10:14:04;;;;;;;12.47;11.07;;;9.20;1.00;9.60;100879.00;;;;4999819;28;20865;-77
2022/03/11 10:16:34;;;;;;;13.90;11.20;;;9.20;1.00;9.40;100891.00;;;;4995361;28;20598;-75
2022/03/11 10:19:05;;;;;;;12.83;10.63;;;9.30;1.00;9.60;100896.00;;;;4989925;28;20545;-75
2022/03/11 10:21:37;;;;;;;16.23;10.00;;;9.10;1.00;9.80;100889.00;;;;4990756;28;20847;-76
2022/03/11 10:24:08;;;;;;;14.60;10.10;;;9.30;1.00;10.10;100889.00;;;;5011486;28;20472;-76
2022/03/11 10:26:44;;;;;;;13.70;10.60;;;9.60;1.00;10.00;100885.00;;;;5012705;28;20466;-76
2022/03/11 10:29:18;;;;;;;12.10;9.87;;;9.60;1.00;10.00;100873.00;;;;4992719;28;20454;-77
2022/03/11 10:31:51;;;;;;;12.57;10.40;;;9.70;1.00;10.10;100881.00;;;;4991828;28;20462;-75
2022/03/11 10:34:25;;;;;;;13.80;11.50;;;9.80;1.00;10.20;100889.00;;;;4992089;28;20474;-75
2022/03/11 10:36:56;;;;;;;14.00;10.60;;;9.80;1.00;10.20;100884.00;;;;5007761;28;20588;-76
2022/03/11 10:39:27;;;;;;;11.47;8.80;;;9.80;1.00;10.30;100880.00;;;;4988834;28;20461;-76
2022/03/11 10:42:17;;;;;;;13.73;9.63;;;9.90;1.00;10.40;100891.00;;;;4991823;28;20485;-75
2022/03/11 10:44:58;;;;;;;12.20;10.20;;;10.10;1.00;10.60;100892.00;;;;4988397;28;20454;-75
2022/03/11 10:47:32;;;;;;;12.63;10.07;;;10.20;1.00;10.70;100862.00;;;;4988729;28;20546;-75
2022/03/11 10:50:03;;;;;;;14.23;10.30;;;10.20;1.00;10.70;100870.00;;;;5002040;28;20469;-75
2022/03/11 10:52:34;;;;;;;15.63;10.30;;;10.30;1.00;10.80;100869.00;;;;4990765;28;20461;-76
2022/03/11 10:55:18;;;;;;;12.63;10.43;;;10.40;1.00;10.90;100869.00;;;;5005702;28;20470;-76
2022/03/11 10:57:48;;;;;;;13.33;9.77;;;10.60;1.00;11.00;100872.00;;;;5001329;28;20447;-76
2022/03/11 11:00:24;;;;;;;14.37;11.03;;;10.60;1.00;10.90;100869.00;;;;4989786;28;20522;-75
2022/03/11 11:02:54;;;;;;;11.80;10.40;;;10.60;1.00;11.00;100882.00;;;;4991868;28;21320;-75
2022/03/11 11:05:24;;;;;;;14.13;9.90;;;10.50;1.00;11.10;100837.00;;;;4991217;28;21396;-75